sensor_id;sensor_type;location;lat;lon;timestamp;temperature;humidity
20081;DHT22;10200;49.232;9.222;2023-06-14T00:01:18;18.30;63.40
20081;DHT22;10200;49.232;9.222;2023-06-14T00:03:45;18.30;64.10
20081;DHT22;10200;49.232;9.222;2023-06-14T00:06:13;18.20;64.70
20081;DHT22;10200;49.232;9.222;2023-06-14T00:08:38;18.10;64.80
20081;DHT22;10200;49.232;9.222;2023-06-14T00:11:05;18.00;64.80
20081;DHT22;10200;49.232;9.222;2023-06-14T00:13:31;18.00;64.90
20081;DHT22;10200;49.232;9.222;2023-06-14T00:15:56;18.00;64.50
20081;DHT22;10200;49.232;9.222;2023-06-14T00:18:22;18.00;64.80
20081;DHT22;10200;49.232;9.222;2023-06-14T00:20:50;18.00;64.50
20081;DHT22;10200;49.232;9.222;2023-06-14T00:23:16;18.00;64.50
20081;DHT22;10200;49.232;9.222;2023-06-14T00:25:42;18.00;64.40
20081;DHT22;10200;49.232;9.222;2023-06-14T00:28:07;17.90;64.20
20081;DHT22;10200;49.232;9.222;2023-06-14T00:30:33;17.90;64.40
20081;DHT22;10200;49.232;9.222;2023-06-14T00:32:59;17.80;64.40
20081;DHT22;10200;49.232;9.222;2023-06-14T00:35:25;17.80;64.40
20081;DHT22;10200;49.232;9.222;2023-06-14T00:37:50;17.70;64.40
20081;DHT22;10200;49.232;9.222;2023-06-14T00:40:16;17.70;64.80
20081;DHT22;10200;49.232;9.222;2023-06-14T00:42:42;17.60;65.10
20081;DHT22;10200;49.232;9.222;2023-06-14T00:45:08;17.60;66.00
20081;DHT22;10200;49.232;9.222;2023-06-14T00:47:35;17.50;66.20
20081;DHT22;10200;49.232;9.222;2023-06-14T00:50:03;17.40;67.00
20081;DHT22;10200;49.232;9.222;2023-06-14T00:52:31;17.40;66.70
20081;DHT22;10200;49.232;9.222;2023-06-14T00:54:58;17.40;66.90
20081;DHT22;10200;49.232;9.222;2023-06-14T00:57:23;17.40;67.10
20081;DHT22;10200;49.232;9.222;2023-06-14T00:59:51;17.30;67.40
20081;DHT22;10200;49.232;9.222;2023-06-14T01:02:16;17.30;67.70
20081;DHT22;10200;49.232;9.222;2023-06-14T01:04:45;17.30;67.20
20081;DHT22;10200;49.232;9.222;2023-06-14T01:07:41;17.30;67.10
20081;DHT22;10200;49.232;9.222;2023-06-14T01:10:21;17.30;67.30
20081;DHT22;10200;49.232;9.222;2023-06-14T01:13:05;17.20;67.20
20081;DHT22;10200;49.232;9.222;2023-06-14T01:15:34;17.30;67.20
20081;DHT22;10200;49.232;9.222;2023-06-14T01:18:01;17.30;67.30
20081;DHT22;10200;49.232;9.222;2023-06-14T01:20:32;17.20;66.80
20081;DHT22;10200;49.232;9.222;2023-06-14T01:22:58;17.20;67.40
20081;DHT22;10200;49.232;9.222;2023-06-14T01:25:26;17.10;67.60
20081;DHT22;10200;49.232;9.222;2023-06-14T01:28:04;17.20;67.80
20081;DHT22;10200;49.232;9.222;2023-06-14T01:30:37;17.10;68.00
20081;DHT22;10200;49.232;9.222;2023-06-14T01:33:04;17.20;68.40
20081;DHT22;10200;49.232;9.222;2023-06-14T01:35:31;17.10;68.50
20081;DHT22;10200;49.232;9.222;2023-06-14T01:37:57;17.10;69.00
20081;DHT22;10200;49.232;9.222;2023-06-14T01:40:24;17.00;69.10
20081;DHT22;10200;49.232;9.222;2023-06-14T01:42:51;17.00;69.20
20081;DHT22;10200;49.232;9.222;2023-06-14T01:45:18;16.90;69.20
20081;DHT22;10200;49.232;9.222;2023-06-14T01:47:45;16.90;69.00
20081;DHT22;10200;49.232;9.222;2023-06-14T01:50:11;16.90;69.20
20081;DHT22;10200;49.232;9.222;2023-06-14T01:52:37;16.80;69.00
20081;DHT22;10200;49.232;9.222;2023-06-14T01:55:06;16.80;69.00
20081;DHT22;10200;49.232;9.222;2023-06-14T01:57:31;16.80;68.90
20081;DHT22;10200;49.232;9.222;2023-06-14T01:59:57;16.90;68.50
20081;DHT22;10200;49.232;9.222;2023-06-14T02:02:23;16.80;68.40
20081;DHT22;10200;49.232;9.222;2023-06-14T02:04:48;16.90;68.10
20081;DHT22;10200;49.232;9.222;2023-06-14T02:07:14;16.90;67.60
20081;DHT22;10200;49.232;9.222;2023-06-14T02:09:42;16.90;67.20
20081;DHT22;10200;49.232;9.222;2023-06-14T02:12:08;16.90;67.10
20081;DHT22;10200;49.232;9.222;2023-06-14T02:14:34;17.00;66.90
20081;DHT22;10200;49.232;9.222;2023-06-14T02:17:00;17.00;66.60
20081;DHT22;10200;49.232;9.222;2023-06-14T02:19:26;17.00;66.50
20081;DHT22;10200;49.232;9.222;2023-06-14T02:21:52;17.00;66.60
20081;DHT22;10200;49.232;9.222;2023-06-14T02:24:17;17.00;66.40
20081;DHT22;10200;49.232;9.222;2023-06-14T02:26:43;17.00;66.10
20081;DHT22;10200;49.232;9.222;2023-06-14T02:29:09;17.00;66.10
20081;DHT22;10200;49.232;9.222;2023-06-14T02:31:38;17.00;65.90
20081;DHT22;10200;49.232;9.222;2023-06-14T02:34:03;17.00;65.50
20081;DHT22;10200;49.232;9.222;2023-06-14T02:36:29;17.00;65.50
20081;DHT22;10200;49.232;9.222;2023-06-14T02:38:57;17.00;65.20
20081;DHT22;10200;49.232;9.222;2023-06-14T02:41:24;17.00;65.30
20081;DHT22;10200;49.232;9.222;2023-06-14T02:43:52;16.90;65.40
20081;DHT22;10200;49.232;9.222;2023-06-14T02:46:19;16.90;65.50
20081;DHT22;10200;49.232;9.222;2023-06-14T02:48:44;16.90;65.50
20081;DHT22;10200;49.232;9.222;2023-06-14T02:51:11;16.80;66.00
20081;DHT22;10200;49.232;9.222;2023-06-14T02:53:40;16.80;66.00
20081;DHT22;10200;49.232;9.222;2023-06-14T02:56:06;16.80;66.40
20081;DHT22;10200;49.232;9.222;2023-06-14T02:58:31;16.80;66.60
20081;DHT22;10200;49.232;9.222;2023-06-14T03:00:58;16.80;66.60
20081;DHT22;10200;49.232;9.222;2023-06-14T03:03:28;16.80;66.60
20081;DHT22;10200;49.232;9.222;2023-06-14T03:05:53;16.80;67.00
20081;DHT22;10200;49.232;9.222;2023-06-14T03:08:20;16.80;66.80
20081;DHT22;10200;49.232;9.222;2023-06-14T03:10:46;16.80;66.60
20081;DHT22;10200;49.232;9.222;2023-06-14T03:13:15;16.70;66.80
20081;DHT22;10200;49.232;9.222;2023-06-14T03:15:42;16.80;66.70
20081;DHT22;10200;49.232;9.222;2023-06-14T03:18:10;16.80;66.80
20081;DHT22;10200;49.232;9.222;2023-06-14T03:20:37;16.70;66.90
20081;DHT22;10200;49.232;9.222;2023-06-14T03:23:03;16.70;67.10
20081;DHT22;10200;49.232;9.222;2023-06-14T03:25:29;16.60;67.10
20081;DHT22;10200;49.232;9.222;2023-06-14T03:27:56;16.60;67.40
20081;DHT22;10200;49.232;9.222;2023-06-14T03:30:22;16.60;67.90
20081;DHT22;10200;49.232;9.222;2023-06-14T03:32:47;16.50;67.90
20081;DHT22;10200;49.232;9.222;2023-06-14T03:35:13;16.50;68.30
20081;DHT22;10200;49.232;9.222;2023-06-14T03:37:46;16.50;68.30
20081;DHT22;10200;49.232;9.222;2023-06-14T03:40:13;16.50;68.30
20081;DHT22;10200;49.232;9.222;2023-06-14T03:42:39;16.50;68.60
20081;DHT22;10200;49.232;9.222;2023-06-14T03:45:06;16.50;68.40
20081;DHT22;10200;49.232;9.222;2023-06-14T03:47:32;16.40;68.60
20081;DHT22;10200;49.232;9.222;2023-06-14T03:49:58;16.30;70.00
20081;DHT22;10200;49.232;9.222;2023-06-14T03:52:24;16.30;69.00
20081;DHT22;10200;49.232;9.222;2023-06-14T03:54:50;16.30;69.30
20081;DHT22;10200;49.232;9.222;2023-06-14T03:57:16;16.30;69.30
20081;DHT22;10200;49.232;9.222;2023-06-14T03:59:43;16.30;69.20
20081;DHT22;10200;49.232;9.222;2023-06-14T04:02:09;16.40;69.20
20081;DHT22;10200;49.232;9.222;2023-06-14T04:04:35;16.40;68.90
20081;DHT22;10200;49.232;9.222;2023-06-14T04:07:02;16.50;68.90
20081;DHT22;10200;49.232;9.222;2023-06-14T04:09:30;16.50;68.60
20081;DHT22;10200;49.232;9.222;2023-06-14T04:11:56;16.50;68.40
20081;DHT22;10200;49.232;9.222;2023-06-14T04:14:22;16.60;68.20
20081;DHT22;10200;49.232;9.222;2023-06-14T04:16:48;16.60;67.90
20081;DHT22;10200;49.232;9.222;2023-06-14T04:19:15;16.70;68.10
20081;DHT22;10200;49.232;9.222;2023-06-14T04:21:41;16.70;68.80
20081;DHT22;10200;49.232;9.222;2023-06-14T04:24:07;16.80;67.40
20081;DHT22;10200;49.232;9.222;2023-06-14T04:26:39;16.80;67.30
20081;DHT22;10200;49.232;9.222;2023-06-14T04:29:05;16.90;67.90
20081;DHT22;10200;49.232;9.222;2023-06-14T04:31:32;16.90;67.00
20081;DHT22;10200;49.232;9.222;2023-06-14T04:33:59;17.00;67.20
20081;DHT22;10200;49.232;9.222;2023-06-14T04:36:25;17.10;66.80
20081;DHT22;10200;49.232;9.222;2023-06-14T04:38:53;17.10;66.70
20081;DHT22;10200;49.232;9.222;2023-06-14T04:41:20;17.20;67.20
20081;DHT22;10200;49.232;9.222;2023-06-14T04:43:48;17.60;67.20
20081;DHT22;10200;49.232;9.222;2023-06-14T04:46:15;18.60;67.00
20081;DHT22;10200;49.232;9.222;2023-06-14T04:48:42;19.60;63.30
20081;DHT22;10200;49.232;9.222;2023-06-14T04:51:08;20.40;60.40
20081;DHT22;10200;49.232;9.222;2023-06-14T04:53:34;20.90;58.10
20081;DHT22;10200;49.232;9.222;2023-06-14T04:56:00;21.30;57.20
20081;DHT22;10200;49.232;9.222;2023-06-14T04:58:27;21.30;56.20
20081;DHT22;10200;49.232;9.222;2023-06-14T05:00:54;21.20;55.30
20081;DHT22;10200;49.232;9.222;2023-06-14T05:03:21;21.00;55.60
20081;DHT22;10200;49.232;9.222;2023-06-14T05:05:47;20.80;55.50
20081;DHT22;10200;49.232;9.222;2023-06-14T05:08:14;20.60;56.30
20081;DHT22;10200;49.232;9.222;2023-06-14T05:10:39;20.50;56.60
20081;DHT22;10200;49.232;9.222;2023-06-14T05:13:05;20.40;56.30
20081;DHT22;10200;49.232;9.222;2023-06-14T05:15:30;20.30;56.60
20081;DHT22;10200;49.232;9.222;2023-06-14T05:17:56;20.20;56.80
20081;DHT22;10200;49.232;9.222;2023-06-14T05:20:23;20.10;57.30
20081;DHT22;10200;49.232;9.222;2023-06-14T05:22:51;20.00;57.00
20081;DHT22;10200;49.232;9.222;2023-06-14T05:25:18;20.00;57.20
20081;DHT22;10200;49.232;9.222;2023-06-14T05:27:43;19.90;57.80
20081;DHT22;10200;49.232;9.222;2023-06-14T05:30:10;19.90;57.60
20081;DHT22;10200;49.232;9.222;2023-06-14T05:32:36;19.80;58.30
20081;DHT22;10200;49.232;9.222;2023-06-14T05:35:01;20.00;58.80
20081;DHT22;10200;49.232;9.222;2023-06-14T05:37:27;20.20;58.40
20081;DHT22;10200;49.232;9.222;2023-06-14T05:39:52;20.40;57.60
20081;DHT22;10200;49.232;9.222;2023-06-14T05:42:18;20.60;57.10
20081;DHT22;10200;49.232;9.222;2023-06-14T05:44:44;20.70;57.00
20081;DHT22;10200;49.232;9.222;2023-06-14T05:47:09;20.80;57.30
20081;DHT22;10200;49.232;9.222;2023-06-14T05:49:35;21.00;56.20
20081;DHT22;10200;49.232;9.222;2023-06-14T05:52:00;21.00;56.50
20081;DHT22;10200;49.232;9.222;2023-06-14T05:54:26;21.10;56.50
20081;DHT22;10200;49.232;9.222;2023-06-14T05:56:52;21.30;56.20
20081;DHT22;10200;49.232;9.222;2023-06-14T05:59:17;21.40;55.70
20081;DHT22;10200;49.232;9.222;2023-06-14T06:01:43;21.50;55.30
20081;DHT22;10200;49.232;9.222;2023-06-14T06:04:09;21.50;55.10
20081;DHT22;10200;49.232;9.222;2023-06-14T06:06:34;21.70;55.50
20081;DHT22;10200;49.232;9.222;2023-06-14T06:09:01;21.70;54.50
20081;DHT22;10200;49.232;9.222;2023-06-14T06:11:27;21.80;54.80
20081;DHT22;10200;49.232;9.222;2023-06-14T06:13:53;22.00;53.50
20081;DHT22;10200;49.232;9.222;2023-06-14T06:16:18;22.20;54.30
20081;DHT22;10200;49.232;9.222;2023-06-14T06:18:44;22.60;53.50
20081;DHT22;10200;49.232;9.222;2023-06-14T06:21:10;22.80;52.30
20081;DHT22;10200;49.232;9.222;2023-06-14T06:23:35;22.90;51.80
20081;DHT22;10200;49.232;9.222;2023-06-14T06:26:02;22.90;51.50
20081;DHT22;10200;49.232;9.222;2023-06-14T06:28:27;23.00;51.30
20081;DHT22;10200;49.232;9.222;2023-06-14T06:30:55;23.10;51.30
20081;DHT22;10200;49.232;9.222;2023-06-14T06:33:20;23.30;50.30
20081;DHT22;10200;49.232;9.222;2023-06-14T06:35:46;23.30;50.80
20081;DHT22;10200;49.232;9.222;2023-06-14T06:38:13;23.30;50.10
20081;DHT22;10200;49.232;9.222;2023-06-14T06:40:39;23.50;50.10
20081;DHT22;10200;49.232;9.222;2023-06-14T06:43:04;23.50;50.10
20081;DHT22;10200;49.232;9.222;2023-06-14T06:45:30;23.80;49.60
20081;DHT22;10200;49.232;9.222;2023-06-14T06:47:56;23.90;49.50
20081;DHT22;10200;49.232;9.222;2023-06-14T06:50:22;24.10;49.80
20081;DHT22;10200;49.232;9.222;2023-06-14T06:52:48;24.20;48.50
20081;DHT22;10200;49.232;9.222;2023-06-14T06:55:14;24.30;48.30
20081;DHT22;10200;49.232;9.222;2023-06-14T06:57:40;24.70;48.50
20081;DHT22;10200;49.232;9.222;2023-06-14T07:00:07;24.80;46.90
20081;DHT22;10200;49.232;9.222;2023-06-14T07:02:36;24.90;47.60
20081;DHT22;10200;49.232;9.222;2023-06-14T07:05:02;25.20;47.40
20081;DHT22;10200;49.232;9.222;2023-06-14T07:07:28;25.30;46.40
20081;DHT22;10200;49.232;9.222;2023-06-14T07:09:53;25.50;46.20
20081;DHT22;10200;49.232;9.222;2023-06-14T07:12:19;25.30;45.80
20081;DHT22;10200;49.232;9.222;2023-06-14T07:14:45;25.40;46.60
20081;DHT22;10200;49.232;9.222;2023-06-14T07:17:11;25.60;47.20
20081;DHT22;10200;49.232;9.222;2023-06-14T07:19:36;25.60;45.70
20081;DHT22;10200;49.232;9.222;2023-06-14T07:22:03;25.60;46.00
20081;DHT22;10200;49.232;9.222;2023-06-14T07:24:28;25.60;46.20
20081;DHT22;10200;49.232;9.222;2023-06-14T07:26:54;25.70;45.90
20081;DHT22;10200;49.232;9.222;2023-06-14T07:29:20;25.80;45.50
20081;DHT22;10200;49.232;9.222;2023-06-14T07:31:46;25.70;45.60
20081;DHT22;10200;49.232;9.222;2023-06-14T07:34:12;25.90;45.40
20081;DHT22;10200;49.232;9.222;2023-06-14T07:36:38;25.80;45.10
20081;DHT22;10200;49.232;9.222;2023-06-14T07:39:04;25.80;45.80
20081;DHT22;10200;49.232;9.222;2023-06-14T07:41:32;25.90;45.30
20081;DHT22;10200;49.232;9.222;2023-06-14T07:44:00;26.10;45.60
20081;DHT22;10200;49.232;9.222;2023-06-14T07:46:26;26.30;45.10
20081;DHT22;10200;49.232;9.222;2023-06-14T07:48:52;26.50;44.00
20081;DHT22;10200;49.232;9.222;2023-06-14T07:51:17;26.50;43.90
20081;DHT22;10200;49.232;9.222;2023-06-14T07:53:43;26.60;45.00
20081;DHT22;10200;49.232;9.222;2023-06-14T07:56:09;26.80;44.10
20081;DHT22;10200;49.232;9.222;2023-06-14T07:58:34;26.90;43.70
20081;DHT22;10200;49.232;9.222;2023-06-14T08:01:00;27.10;43.70
20081;DHT22;10200;49.232;9.222;2023-06-14T08:03:28;27.30;43.70
20081;DHT22;10200;49.232;9.222;2023-06-14T08:05:55;27.50;42.60
20081;DHT22;10200;49.232;9.222;2023-06-14T08:08:21;27.20;42.00
20081;DHT22;10200;49.232;9.222;2023-06-14T08:10:46;27.40;43.20
20081;DHT22;10200;49.232;9.222;2023-06-14T08:13:12;27.70;42.00
20081;DHT22;10200;49.232;9.222;2023-06-14T08:15:38;27.70;41.80
20081;DHT22;10200;49.232;9.222;2023-06-14T08:18:04;27.70;41.20
20081;DHT22;10200;49.232;9.222;2023-06-14T08:20:29;27.70;41.50
20081;DHT22;10200;49.232;9.222;2023-06-14T08:22:57;27.90;42.40
20081;DHT22;10200;49.232;9.222;2023-06-14T08:25:24;28.20;41.50
20081;DHT22;10200;49.232;9.222;2023-06-14T08:27:49;28.20;40.90
20081;DHT22;10200;49.232;9.222;2023-06-14T08:30:15;28.20;41.00
20081;DHT22;10200;49.232;9.222;2023-06-14T08:32:43;28.40;41.10
20081;DHT22;10200;49.232;9.222;2023-06-14T08:35:08;28.20;41.10
20081;DHT22;10200;49.232;9.222;2023-06-14T08:37:40;28.30;40.30
20081;DHT22;10200;49.232;9.222;2023-06-14T08:40:22;28.30;40.40
20081;DHT22;10200;49.232;9.222;2023-06-14T08:42:51;28.40;40.70
20081;DHT22;10200;49.232;9.222;2023-06-14T08:45:19;28.40;40.60
20081;DHT22;10200;49.232;9.222;2023-06-14T08:47:45;28.30;40.00
20081;DHT22;10200;49.232;9.222;2023-06-14T08:50:19;28.30;40.20
20081;DHT22;10200;49.232;9.222;2023-06-14T08:52:45;28.40;40.30
20081;DHT22;10200;49.232;9.222;2023-06-14T08:55:15;28.60;40.30
20081;DHT22;10200;49.232;9.222;2023-06-14T08:57:46;28.90;40.40
20081;DHT22;10200;49.232;9.222;2023-06-14T09:00:30;29.00;40.40
20081;DHT22;10200;49.232;9.222;2023-06-14T09:02:56;29.50;40.60
20081;DHT22;10200;49.232;9.222;2023-06-14T09:05:25;29.80;39.00
20081;DHT22;10200;49.232;9.222;2023-06-14T09:07:51;29.90;39.30
20081;DHT22;10200;49.232;9.222;2023-06-14T09:10:18;29.80;38.00
20081;DHT22;10200;49.232;9.222;2023-06-14T09:12:43;29.60;38.20
20081;DHT22;10200;49.232;9.222;2023-06-14T09:15:30;29.50;39.30
20081;DHT22;10200;49.232;9.222;2023-06-14T09:17:56;29.50;38.90
20081;DHT22;10200;49.232;9.222;2023-06-14T09:20:24;29.60;39.20
20081;DHT22;10200;49.232;9.222;2023-06-14T09:22:50;29.90;39.50
20081;DHT22;10200;49.232;9.222;2023-06-14T09:25:16;30.30;38.40
20081;DHT22;10200;49.232;9.222;2023-06-14T09:27:42;30.50;38.20
20081;DHT22;10200;49.232;9.222;2023-06-14T09:30:11;30.80;38.10
20081;DHT22;10200;49.232;9.222;2023-06-14T09:32:38;31.00;35.90
20081;DHT22;10200;49.232;9.222;2023-06-14T09:35:06;30.70;36.60
20081;DHT22;10200;49.232;9.222;2023-06-14T09:37:32;30.50;36.60
20081;DHT22;10200;49.232;9.222;2023-06-14T09:39:58;30.50;37.20
20081;DHT22;10200;49.232;9.222;2023-06-14T09:42:24;30.20;36.20
20081;DHT22;10200;49.232;9.222;2023-06-14T09:44:55;29.30;37.80
20081;DHT22;10200;49.232;9.222;2023-06-14T09:47:21;29.10;38.60
20081;DHT22;10200;49.232;9.222;2023-06-14T09:49:48;29.20;39.20
20081;DHT22;10200;49.232;9.222;2023-06-14T09:52:16;29.10;38.20
20081;DHT22;10200;49.232;9.222;2023-06-14T09:54:44;29.20;37.30
20081;DHT22;10200;49.232;9.222;2023-06-14T09:57:12;29.00;37.20
20081;DHT22;10200;49.232;9.222;2023-06-14T09:59:41;29.00;37.70
20081;DHT22;10200;49.232;9.222;2023-06-14T10:02:21;28.70;37.20
20081;DHT22;10200;49.232;9.222;2023-06-14T10:05:06;28.80;38.30
20081;DHT22;10200;49.232;9.222;2023-06-14T10:07:40;28.90;37.70
20081;DHT22;10200;49.232;9.222;2023-06-14T10:10:06;28.90;37.80
20081;DHT22;10200;49.232;9.222;2023-06-14T10:12:32;29.10;38.00
20081;DHT22;10200;49.232;9.222;2023-06-14T10:14:58;29.20;37.60
20081;DHT22;10200;49.232;9.222;2023-06-14T10:19:56;29.90;37.00
20081;DHT22;10200;49.232;9.222;2023-06-14T10:23:08;29.70;35.90
20081;DHT22;10200;49.232;9.222;2023-06-14T10:25:35;29.60;34.10
20081;DHT22;10200;49.232;9.222;2023-06-14T10:28:17;29.70;34.90
20081;DHT22;10200;49.232;9.222;2023-06-14T10:33:39;30.50;32.60
20081;DHT22;10200;49.232;9.222;2023-06-14T10:36:09;30.60;31.90
20081;DHT22;10200;49.232;9.222;2023-06-14T10:38:37;31.00;31.80
20081;DHT22;10200;49.232;9.222;2023-06-14T10:41:04;30.60;30.40
20081;DHT22;10200;49.232;9.222;2023-06-14T10:43:31;30.60;31.70
20081;DHT22;10200;49.232;9.222;2023-06-14T10:46:16;30.80;32.50
20081;DHT22;10200;49.232;9.222;2023-06-14T10:48:45;30.60;33.70
20081;DHT22;10200;49.232;9.222;2023-06-14T10:51:20;30.40;34.00
20081;DHT22;10200;49.232;9.222;2023-06-14T10:53:50;30.40;34.20
20081;DHT22;10200;49.232;9.222;2023-06-14T10:56:32;30.40;34.30
20081;DHT22;10200;49.232;9.222;2023-06-14T10:58:58;30.50;35.00
20081;DHT22;10200;49.232;9.222;2023-06-14T11:01:38;30.40;34.40
20081;DHT22;10200;49.232;9.222;2023-06-14T11:04:11;30.30;35.30
20081;DHT22;10200;49.232;9.222;2023-06-14T11:06:48;30.50;34.80
20081;DHT22;10200;49.232;9.222;2023-06-14T11:09:52;30.70;33.70
20081;DHT22;10200;49.232;9.222;2023-06-14T11:12:24;30.60;33.30
20081;DHT22;10200;49.232;9.222;2023-06-14T11:14:52;30.40;34.10
20081;DHT22;10200;49.232;9.222;2023-06-14T11:17:17;30.70;34.20
20081;DHT22;10200;49.232;9.222;2023-06-14T11:19:44;30.80;33.70
20081;DHT22;10200;49.232;9.222;2023-06-14T11:22:10;30.60;33.10
20081;DHT22;10200;49.232;9.222;2023-06-14T11:24:38;30.30;33.60
20081;DHT22;10200;49.232;9.222;2023-06-14T11:27:04;29.80;33.30
20081;DHT22;10200;49.232;9.222;2023-06-14T11:29:31;29.00;34.60
20081;DHT22;10200;49.232;9.222;2023-06-14T11:31:58;28.70;36.60
20081;DHT22;10200;49.232;9.222;2023-06-14T11:34:24;28.20;36.10
20081;DHT22;10200;49.232;9.222;2023-06-14T11:36:50;28.10;38.50
20081;DHT22;10200;49.232;9.222;2023-06-14T11:39:16;28.30;38.10
20081;DHT22;10200;49.232;9.222;2023-06-14T11:41:45;28.40;37.40
20081;DHT22;10200;49.232;9.222;2023-06-14T11:44:11;28.50;37.20
20081;DHT22;10200;49.232;9.222;2023-06-14T11:46:37;28.50;37.50
20081;DHT22;10200;49.232;9.222;2023-06-14T11:49:03;28.60;37.20
20081;DHT22;10200;49.232;9.222;2023-06-14T11:51:31;28.60;37.40
20081;DHT22;10200;49.232;9.222;2023-06-14T11:53:57;28.60;36.30
20081;DHT22;10200;49.232;9.222;2023-06-14T11:56:24;28.70;36.60
20081;DHT22;10200;49.232;9.222;2023-06-14T11:58:51;28.80;36.50
20081;DHT22;10200;49.232;9.222;2023-06-14T12:01:19;29.20;36.80
20081;DHT22;10200;49.232;9.222;2023-06-14T12:03:52;29.50;36.40
20081;DHT22;10200;49.232;9.222;2023-06-14T12:06:26;29.50;35.50
20081;DHT22;10200;49.232;9.222;2023-06-14T12:09:12;28.90;35.30
20081;DHT22;10200;49.232;9.222;2023-06-14T12:11:43;28.40;36.60
20081;DHT22;10200;49.232;9.222;2023-06-14T12:14:09;28.00;36.90
20081;DHT22;10200;49.232;9.222;2023-06-14T12:16:38;27.80;37.90
20081;DHT22;10200;49.232;9.222;2023-06-14T12:19:15;27.80;37.60
20081;DHT22;10200;49.232;9.222;2023-06-14T12:21:42;27.90;38.40
20081;DHT22;10200;49.232;9.222;2023-06-14T12:24:08;28.20;38.40
20081;DHT22;10200;49.232;9.222;2023-06-14T12:26:41;28.70;38.10
20081;DHT22;10200;49.232;9.222;2023-06-14T12:29:07;29.10;37.60
20081;DHT22;10200;49.232;9.222;2023-06-14T12:31:33;29.00;36.10
20081;DHT22;10200;49.232;9.222;2023-06-14T12:33:59;28.60;36.40
20081;DHT22;10200;49.232;9.222;2023-06-14T12:36:25;28.20;36.80
20081;DHT22;10200;49.232;9.222;2023-06-14T12:38:51;27.80;37.60
20081;DHT22;10200;49.232;9.222;2023-06-14T12:41:21;27.50;38.30
20081;DHT22;10200;49.232;9.222;2023-06-14T12:43:48;27.30;38.90
20081;DHT22;10200;49.232;9.222;2023-06-14T12:46:13;27.20;39.60
20081;DHT22;10200;49.232;9.222;2023-06-14T12:48:39;27.10;38.80
20081;DHT22;10200;49.232;9.222;2023-06-14T12:51:04;27.10;39.20
20081;DHT22;10200;49.232;9.222;2023-06-14T12:53:30;27.10;38.90
20081;DHT22;10200;49.232;9.222;2023-06-14T12:55:56;27.20;38.60
20081;DHT22;10200;49.232;9.222;2023-06-14T12:58:21;27.20;38.80
20081;DHT22;10200;49.232;9.222;2023-06-14T13:00:49;27.20;38.70
20081;DHT22;10200;49.232;9.222;2023-06-14T13:03:15;27.20;38.90
20081;DHT22;10200;49.232;9.222;2023-06-14T13:05:40;27.30;39.10
20081;DHT22;10200;49.232;9.222;2023-06-14T13:08:07;27.30;38.30
20081;DHT22;10200;49.232;9.222;2023-06-14T13:10:36;27.30;38.50
20081;DHT22;10200;49.232;9.222;2023-06-14T13:13:02;27.30;38.40
20081;DHT22;10200;49.232;9.222;2023-06-14T13:15:28;27.40;38.10
20081;DHT22;10200;49.232;9.222;2023-06-14T13:17:57;27.50;38.80
20081;DHT22;10200;49.232;9.222;2023-06-14T13:20:22;27.70;39.50
20081;DHT22;10200;49.232;9.222;2023-06-14T13:22:48;28.00;38.60
20081;DHT22;10200;49.232;9.222;2023-06-14T13:25:14;28.10;37.00
20081;DHT22;10200;49.232;9.222;2023-06-14T13:27:40;28.20;36.50
20081;DHT22;10200;49.232;9.222;2023-06-14T13:30:06;28.20;36.30
20081;DHT22;10200;49.232;9.222;2023-06-14T13:32:32;28.30;36.50
20081;DHT22;10200;49.232;9.222;2023-06-14T13:34:59;28.30;37.10
20081;DHT22;10200;49.232;9.222;2023-06-14T13:37:25;28.30;37.10
20081;DHT22;10200;49.232;9.222;2023-06-14T13:39:50;28.20;37.20
20081;DHT22;10200;49.232;9.222;2023-06-14T13:42:16;28.00;38.30
20081;DHT22;10200;49.232;9.222;2023-06-14T13:44:42;27.80;37.70
20081;DHT22;10200;49.232;9.222;2023-06-14T13:47:08;27.70;38.50
20081;DHT22;10200;49.232;9.222;2023-06-14T13:49:33;27.90;38.30
20081;DHT22;10200;49.232;9.222;2023-06-14T13:52:00;27.90;37.60
20081;DHT22;10200;49.232;9.222;2023-06-14T13:54:26;28.10;37.50
20081;DHT22;10200;49.232;9.222;2023-06-14T13:56:52;28.10;36.50
20081;DHT22;10200;49.232;9.222;2023-06-14T13:59:18;28.20;37.00
20081;DHT22;10200;49.232;9.222;2023-06-14T14:01:44;28.20;36.90
20081;DHT22;10200;49.232;9.222;2023-06-14T14:04:09;28.10;36.40
20081;DHT22;10200;49.232;9.222;2023-06-14T14:06:35;28.10;37.90
20081;DHT22;10200;49.232;9.222;2023-06-14T14:09:01;28.10;37.20
20081;DHT22;10200;49.232;9.222;2023-06-14T14:11:28;28.10;37.40
20081;DHT22;10200;49.232;9.222;2023-06-14T14:13:54;28.10;38.00
20081;DHT22;10200;49.232;9.222;2023-06-14T14:16:19;28.10;37.50
20081;DHT22;10200;49.232;9.222;2023-06-14T14:18:46;28.20;37.70
20081;DHT22;10200;49.232;9.222;2023-06-14T14:21:11;28.30;37.30
20081;DHT22;10200;49.232;9.222;2023-06-14T14:23:37;28.40;36.90
20081;DHT22;10200;49.232;9.222;2023-06-14T14:26:03;28.30;36.70
20081;DHT22;10200;49.232;9.222;2023-06-14T14:28:30;28.30;36.40
20081;DHT22;10200;49.232;9.222;2023-06-14T14:30:56;28.40;37.00
20081;DHT22;10200;49.232;9.222;2023-06-14T14:33:22;28.50;36.60
20081;DHT22;10200;49.232;9.222;2023-06-14T14:35:47;28.50;36.00
20081;DHT22;10200;49.232;9.222;2023-06-14T14:38:15;28.30;36.90
20081;DHT22;10200;49.232;9.222;2023-06-14T14:40:44;28.40;37.40
20081;DHT22;10200;49.232;9.222;2023-06-14T14:43:11;28.40;37.50
20081;DHT22;10200;49.232;9.222;2023-06-14T14:45:37;28.50;37.60
20081;DHT22;10200;49.232;9.222;2023-06-14T14:48:03;28.40;37.20
20081;DHT22;10200;49.232;9.222;2023-06-14T14:50:29;28.30;36.70
20081;DHT22;10200;49.232;9.222;2023-06-14T14:52:56;28.30;37.10
20081;DHT22;10200;49.232;9.222;2023-06-14T14:55:22;28.30;37.70
20081;DHT22;10200;49.232;9.222;2023-06-14T14:57:47;28.40;37.40
20081;DHT22;10200;49.232;9.222;2023-06-14T15:00:13;28.30;36.90
20081;DHT22;10200;49.232;9.222;2023-06-14T15:02:40;28.30;37.60
20081;DHT22;10200;49.232;9.222;2023-06-14T15:05:06;28.40;37.40
20081;DHT22;10200;49.232;9.222;2023-06-14T15:07:31;28.40;37.60
20081;DHT22;10200;49.232;9.222;2023-06-14T15:10:02;28.40;37.40
20081;DHT22;10200;49.232;9.222;2023-06-14T15:12:27;28.40;37.60
20081;DHT22;10200;49.232;9.222;2023-06-14T15:14:53;28.20;36.90
20081;DHT22;10200;49.232;9.222;2023-06-14T15:17:20;28.00;37.70
20081;DHT22;10200;49.232;9.222;2023-06-14T15:19:46;28.00;37.80
20081;DHT22;10200;49.232;9.222;2023-06-14T15:22:13;27.90;37.90
20081;DHT22;10200;49.232;9.222;2023-06-14T15:24:40;27.80;37.60
20081;DHT22;10200;49.232;9.222;2023-06-14T15:27:06;27.70;37.00
20081;DHT22;10200;49.232;9.222;2023-06-14T15:29:31;27.50;37.70
20081;DHT22;10200;49.232;9.222;2023-06-14T15:31:57;27.40;37.50
20081;DHT22;10200;49.232;9.222;2023-06-14T15:34:23;27.30;37.60
20081;DHT22;10200;49.232;9.222;2023-06-14T15:36:49;27.10;37.70